Time;durP1;ratioP1;P1;durP2;ratioP2;P2;SDS_P1;SDS_P2;PMS_P1;PMS_P2;Temp;Humidity;BMP_temperature;BMP_pressure;BME280_temperature;BME280_humidity;BME280_pressure;Samples;Min_cycle;Max_cycle;Signal;HPM_P1;HPM_P2
2023/08/01 00:00:05;;;;;;;3.55;2.90;;;19.00;90.00;;;20.48;59.71;96656.66;5013352;28;20387;-55
2023/08/01 00:02:39;;;;;;;6.30;3.42;;;19.00;90.80;;;20.52;59.71;96654.28;5013544;28;20046;-53
2023/08/01 00:05:07;;;;;;;5.07;3.80;;;19.00;92.00;;;20.56;59.72;96656.22;5012306;28;20053;-53
2023/08/01 00:07:34;;;;;;;4.93;2.85;;;19.00;91.80;;;20.60;59.96;96662.00;5013320;28;20057;-54
2023/08/01 00:10:05;;;;;;;5.22;3.17;;;19.00;92.20;;;20.59;59.97;96650.38;5013132;28;20409;-53
2023/08/01 00:12:33;;;;;;;7.30;4.57;;;19.00;92.80;;;20.59;59.51;96646.81;5013247;28;20046;-51
2023/08/01 00:15:01;;;;;;;6.32;3.03;;;19.00;91.80;;;20.60;59.61;96641.16;5013337;28;20041;-50
2023/08/01 00:17:29;;;;;;;4.28;3.13;;;19.00;91.80;;;20.59;59.91;96636.84;5013090;28;20050;-52
2023/08/01 00:19:56;;;;;;;5.00;3.15;;;19.00;92.40;;;20.64;60.17;96627.97;5012826;28;20038;-52
2023/08/01 00:22:24;;;;;;;6.53;3.92;;;19.00;93.10;;;20.68;59.70;96625.59;5013036;28;20038;-51
2023/08/01 00:24:51;;;;;;;6.57;3.75;;;19.00;93.40;;;20.71;60.10;96628.63;5012980;28;20042;-50
2023/08/01 00:27:19;;;;;;;5.13;3.25;;;19.00;93.60;;;20.69;60.05;96619.13;5028062;28;20050;-52
2023/08/01 00:29:46;;;;;;;6.57;3.58;;;18.90;94.00;;;20.66;60.45;96606.91;5011457;28;20413;-52
2023/08/01 00:32:14;;;;;;;4.40;3.00;;;18.90;95.20;;;20.64;60.35;96590.94;5012735;28;20045;-54
2023/08/01 00:34:42;;;;;;;7.38;3.83;;;18.80;96.00;;;20.63;60.52;96574.97;5020104;28;20045;-52
2023/08/01 00:37:09;;;;;;;5.82;3.25;;;18.80;96.20;;;20.66;60.85;96574.47;5015318;28;20049;-52
2023/08/01 00:39:37;;;;;;;4.40;3.22;;;18.90;96.60;;;20.66;60.42;96569.03;5011428;28;20041;-52
2023/08/01 00:42:05;;;;;;;4.35;3.17;;;18.90;95.80;;;20.64;60.31;96560.38;5028091;28;20049;-53
2023/08/01 00:44:32;;;;;;;5.97;3.55;;;18.90;96.00;;;20.64;60.42;96555.78;5012789;28;20049;-49
2023/08/01 00:47:00;;;;;;;5.70;3.63;;;18.80;96.20;;;20.64;60.44;96549.56;5028226;28;20042;-54
2023/08/01 00:49:28;;;;;;;7.20;3.60;;;18.80;96.00;;;20.62;60.39;96544.41;5010788;28;20061;-52
2023/08/01 00:51:57;;;;;;;6.45;3.65;;;18.80;96.00;;;20.56;60.81;96542.66;5012703;28;20386;-51
2023/08/01 00:54:25;;;;;;;5.32;3.65;;;18.80;96.60;;;20.54;61.04;96538.59;4995380;28;20054;-53
2023/08/01 00:56:53;;;;;;;6.00;4.30;;;18.80;97.00;;;20.51;60.65;96537.22;4993378;28;20049;-51
2023/08/01 00:59:21;;;;;;;7.05;4.07;;;18.80;96.80;;;20.46;61.10;96524.44;5009754;28;20046;-55
2023/08/01 01:01:48;;;;;;;4.47;3.53;;;18.70;97.30;;;20.42;61.05;96517.91;5011803;28;20042;-53
2023/08/01 01:04:16;;;;;;;5.65;3.40;;;18.70;97.30;;;20.41;61.05;96513.59;5019402;28;20042;-51
2023/08/01 01:07:02;;;;;;;6.53;3.60;;;18.70;97.70;;;20.41;61.09;96515.44;4994923;28;20046;-55
2023/08/01 01:09:33;;;;;;;6.97;3.72;;;18.70;98.20;;;20.39;61.20;96520.28;5009791;28;20049;-53
2023/08/01 01:12:01;;;;;;;5.55;3.20;;;18.60;98.10;;;20.37;61.16;96531.34;5027233;28;20053;-51
2023/08/01 01:14:29;;;;;;;4.32;3.33;;;18.60;97.20;;;20.29;60.75;96515.56;5012183;28;20061;-54
2023/08/01 01:16:57;;;;;;;4.72;3.58;;;18.60;96.10;;;20.26;61.00;96522.31;5012186;28;20109;-53
2023/08/01 01:19:24;;;;;;;4.28;3.05;;;18.60;95.50;;;20.33;60.31;96521.31;5011665;28;20034;-50
2023/08/01 01:21:52;;;;;;;5.55;3.47;;;18.70;94.50;;;20.36;60.59;96515.41;5011068;28;20401;-50
2023/08/01 01:24:22;;;;;;;4.82;3.30;;;18.80;94.50;;;20.29;61.25;96523.69;4994503;28;20045;-52
2023/08/01 01:26:51;;;;;;;4.88;3.75;;;18.70;95.70;;;20.18;61.07;96513.81;4987401;28;20049;-52
2023/08/01 01:29:20;;;;;;;6.47;3.17;;;18.70;95.80;;;20.21;61.29;96519.53;5010105;28;20058;-55
2023/08/01 01:31:50;;;;;;;5.75;3.25;;;18.70;97.10;;;20.08;62.28;96530.69;5019061;28;20418;-52
2023/08/01 01:34:19;;;;;;;5.68;3.95;;;18.50;98.60;;;19.99;62.64;96518.69;5010824;28;20049;-55
2023/08/01 01:36:46;;;;;;;4.95;3.53;;;18.40;99.90;;;19.84;63.27;96522.00;5011615;28;20042;-51
2023/08/01 01:39:14;;;;;;;4.72;3.58;;;18.30;99.90;;;19.81;63.54;96509.81;5011465;28;20053;-50
2023/08/01 01:41:41;;;;;;;6.55;3.75;;;18.20;99.90;;;19.72;64.03;96502.38;5010893;28;20060;-52
2023/08/01 01:44:09;;;;;;;4.75;3.55;;;18.10;99.90;;;19.76;63.70;96492.72;5010313;28;20053;-53
2023/08/01 01:46:37;;;;;;;7.95;3.28;;;18.10;99.90;;;19.63;64.34;96483.84;4994228;28;20072;-54
2023/08/01 01:49:06;;;;;;;7.13;3.97;;;18.00;99.90;;;19.64;64.59;96473.88;4993956;28;20050;-53
2023/08/01 01:51:33;;;;;;;6.85;4.05;;;18.00;99.90;;;19.59;64.97;96466.50;5010452;28;20414;-49
2023/08/01 01:54:01;;;;;;;8.45;3.78;;;18.00;99.90;;;19.61;64.94;96472.47;5009902;28;20046;-54
2023/08/01 01:56:29;;;;;;;6.82;3.72;;;18.00;99.90;;;19.68;64.68;96472.31;5011549;28;20386;-51
2023/08/01 01:58:57;;;;;;;4.63;3.58;;;18.00;99.90;;;19.76;64.57;96468.41;5010307;28;20042;-50
2023/08/01 02:01:25;;;;;;;6.30;3.70;;;18.10;99.90;;;19.73;64.55;96477.00;5009745;28;20061;-53
2023/08/01 02:03:52;;;;;;;7.22;4.32;;;18.10;99.90;;;19.72;64.61;96469.97;5011526;28;20517;-55
2023/08/01 02:06:20;;;;;;;10.25;4.15;;;18.00;99.90;;;19.71;64.78;96469.09;5010288;28;20042;-55
2023/08/01 02:08:47;;;;;;;6.30;4.00;;;18.00;99.90;;;19.71;64.55;96473.69;5009749;28;20046;-55
2023/08/01 02:11:15;;;;;;;6.53;3.53;;;18.00;99.90;;;19.60;65.16;96470.00;5010203;28;20053;-52
2023/08/01 02:13:43;;;;;;;5.82;4.30;;;18.00;99.90;;;19.63;65.17;96466.84;5026753;28;20060;-52
2023/08/01 02:16:11;;;;;;;7.50;4.32;;;17.90;99.90;;;19.67;65.39;96460.69;5010112;28;20054;-53
2023/08/01 02:18:38;;;;;;;6.38;3.72;;;17.90;99.90;;;19.72;65.09;96453.78;5009221;28;20054;-52
2023/08/01 02:21:06;;;;;;;5.78;3.30;;;18.00;99.90;;;19.75;64.97;96459.47;5010707;28;20046;-50
2023/08/01 02:23:36;;;;;;;7.75;3.88;;;18.00;99.90;;;19.74;65.13;96465.94;5014278;28;20046;-52
2023/08/01 02:26:04;;;;;;;6.03;4.72;;;18.00;99.90;;;19.74;65.47;96462.44;5013722;28;20045;-52
2023/08/01 02:28:31;;;;;;;6.07;4.78;;;18.00;99.90;;;19.76;65.41;96461.13;5014762;28;20046;-53
2023/08/01 02:30:59;;;;;;;7.43;4.07;;;17.90;99.90;;;19.74;65.25;96455.16;5015728;28;20049;-51
2023/08/01 02:33:27;;;;;;;6.15;4.25;;;17.90;99.90;;;19.70;65.59;96445.03;5015172;28;20041;-50
2023/08/01 02:35:54;;;;;;;6.30;3.97;;;17.90;99.90;;;19.70;65.51;96445.88;5022552;28;20079;-55
2023/08/01 02:38:22;;;;;;;6.10;3.58;;;17.90;99.90;;;19.71;65.34;96447.50;5014786;28;20046;-51
2023/08/01 02:40:50;;;;;;;5.15;3.92;;;17.90;99.90;;;19.68;65.31;96450.72;5014846;28;20486;-54
2023/08/01 02:43:17;;;;;;;6.55;3.78;;;17.90;99.90;;;19.68;65.21;96442.63;5015163;28;20038;-53
2023/08/01 02:45:45;;;;;;;5.50;3.42;;;18.00;99.90;;;19.63;65.44;96432.53;5015359;28;20420;-53
2023/08/01 02:48:13;;;;;;;7.32;4.05;;;18.00;99.90;;;19.66;65.36;96426.66;5014227;28;20071;-50
2023/08/01 02:50:41;;;;;;;5.20;3.75;;;18.00;99.90;;;19.65;65.16;96424.22;5013886;28;20057;-54
2023/08/01 02:53:08;;;;;;;6.07;3.65;;;18.00;99.90;;;19.64;65.26;96425.28;5013681;28;20050;-54
2023/08/01 02:55:36;;;;;;;4.28;3.10;;;18.00;99.90;;;19.70;65.03;96428.84;5030323;28;20501;-49
2023/08/01 02:58:03;;;;;;;4.78;3.67;;;18.10;99.90;;;19.76;65.07;96415.22;5013314;28;20053;-51
2023/08/01 03:00:31;;;;;;;4.95;3.40;;;18.10;99.90;;;19.80;64.79;96412.84;5029427;28;20076;-48
2023/08/01 03:02:59;;;;;;;5.78;3.80;;;18.10;99.90;;;19.69;64.59;96406.44;5012798;28;20046;-50
2023/08/01 03:05:27;;;;;;;5.95;3.50;;;18.10;99.90;;;19.76;64.73;96414.41;5014672;28;20054;-53
2023/08/01 03:07:54;;;;;;;5.38;3.80;;;18.10;99.90;;;19.79;64.28;96419.28;5013987;28;20068;-50
2023/08/01 03:10:22;;;;;;;5.82;3.65;;;18.10;99.90;;;19.76;64.17;96414.41;5014472;28;20421;-54
2023/08/01 03:12:57;;;;;;;7.00;3.50;;;18.20;99.90;;;19.62;64.33;96412.03;5005491;28;20046;-52
2023/08/01 03:15:24;;;;;;;5.45;3.45;;;18.10;99.90;;;19.68;64.10;96404.81;5014636;28;20045;-53
2023/08/01 03:17:52;;;;;;;4.72;3.47;;;18.20;99.90;;;19.72;63.89;96399.78;5012757;28;20073;-51
2023/08/01 03:20:20;;;;;;;5.68;3.38;;;18.20;99.90;;;19.70;64.02;96418.03;5014335;28;20077;-52
2023/08/01 03:22:47;;;;;;;4.72;3.17;;;18.20;99.90;;;19.69;63.80;96419.94;4996667;28;20042;-53
2023/08/01 03:25:15;;;;;;;6.53;3.72;;;18.30;99.90;;;19.73;63.54;96415.69;5013360;28;20053;-50
2023/08/01 03:27:43;;;;;;;6.03;3.33;;;18.30;99.90;;;19.82;63.47;96416.91;5012948;28;20046;-53
2023/08/01 03:30:10;;;;;;;6.18;3.40;;;18.40;99.90;;;19.80;63.28;96407.44;5014047;28;20520;-52
2023/08/01 03:32:39;;;;;;;4.22;3.05;;;18.40;99.90;;;19.81;63.38;96412.59;5012503;28;20054;-54
2023/08/01 03:35:07;;;;;;;5.13;3.45;;;18.40;99.90;;;19.86;63.28;96407.25;5013061;28;20408;-52
2023/08/01 03:37:34;;;;;;;4.10;3.10;;;18.40;99.90;;;19.92;63.26;96405.41;5012644;28;20057;-55
2023/08/01 03:40:02;;;;;;;6.43;3.13;;;18.40;99.90;;;19.92;63.28;96391.91;5012323;28;20058;-51
2023/08/01 03:42:30;;;;;;;4.55;3.00;;;18.40;99.90;;;19.89;63.29;96397.00;5013945;28;20053;-52
2023/08/01 03:44:57;;;;;;;5.30;3.30;;;18.40;99.90;;;19.88;62.91;96390.78;5013906;28;20037;-53
2023/08/01 03:47:25;;;;;;;6.22;3.25;;;18.40;99.90;;;19.86;62.93;96398.34;5012871;28;20497;-52
2023/08/01 03:49:53;;;;;;;6.43;3.55;;;18.40;99.90;;;19.80;62.90;96388.53;5011921;28;20417;-52
2023/08/01 03:52:21;;;;;;;5.70;3.58;;;18.40;99.90;;;19.82;63.02;96384.50;5013606;28;20053;-51
2023/08/01 03:54:48;;;;;;;4.63;3.33;;;18.40;99.90;;;19.82;63.15;96383.69;5012823;28;20046;-50
2023/08/01 03:57:16;;;;;;;3.60;2.70;;;18.40;99.90;;;19.72;63.06;96370.06;5013241;28;20056;-50
2023/08/01 03:59:43;;;;;;;4.95;2.70;;;18.30;99.90;;;19.78;63.19;96361.78;5010715;28;20057;-54
2023/08/01 04:02:11;;;;;;;4.57;3.00;;;18.30;99.90;;;19.81;63.01;96334.28;5013850;28;20516;-53
2023/08/01 04:04:39;;;;;;;5.38;3.08;;;18.40;99.90;;;19.73;63.45;96296.09;5012470;28;20061;-52
2023/08/01 04:07:06;;;;;;;4.00;3.20;;;18.30;99.90;;;19.64;63.56;96261.44;5013391;28;20042;-56
2023/08/01 04:09:34;;;;;;;5.30;2.92;;;18.20;99.90;;;19.69;63.56;96247.16;5011996;28;20476;-54
2023/08/01 04:12:02;;;;;;;4.57;2.78;;;18.20;99.90;;;19.61;63.70;96244.91;5013492;28;20534;-52
2023/08/01 04:14:29;;;;;;;4.65;2.65;;;18.20;99.90;;;19.54;63.50;96247.81;4996079;28;20502;-53
2023/08/01 04:16:57;;;;;;;8.55;3.55;;;18.20;99.90;;;19.61;63.17;96259.22;5013095;28;20527;-51
2023/08/01 04:19:25;;;;;;;5.53;2.90;;;18.20;99.90;;;19.46;63.33;96272.53;5011748;28;20053;-51
2023/08/01 04:21:52;;;;;;;6.25;3.60;;;18.20;99.90;;;19.50;63.20;96283.66;5013196;28;20421;-55
2023/08/01 04:24:20;;;;;;;4.45;3.33;;;18.30;99.90;;;19.46;63.20;96265.28;5013167;28;20462;-53
2023/08/01 04:26:48;;;;;;;3.53;2.70;;;18.20;99.90;;;19.52;62.65;96258.03;5013124;28;20041;-53
2023/08/01 04:29:17;;;;;;;5.90;2.67;;;18.30;99.90;;;19.58;62.73;96250.81;5012096;28;20050;-51
2023/08/01 04:31:45;;;;;;;3.60;2.83;;;18.40;99.90;;;19.55;62.34;96252.13;5011873;28;20057;-50
2023/08/01 04:34:12;;;;;;;4.63;2.70;;;18.40;98.60;;;19.62;62.21;96244.66;5013100;28;20054;-52
2023/08/01 04:36:40;;;;;;;4.60;2.70;;;18.40;98.10;;;19.61;62.13;96248.41;5010940;28;20061;-52
2023/08/01 04:39:08;;;;;;;5.75;3.15;;;18.50;98.10;;;19.79;61.97;96259.97;5012657;28;20531;-51
2023/08/01 04:41:36;;;;;;;5.18;3.33;;;18.50;98.40;;;19.90;61.34;96277.13;5012846;28;20492;-54
2023/08/01 04:44:03;;;;;;;3.65;2.80;;;18.60;96.80;;;19.74;61.35;96287.75;5011176;28;20056;-55
2023/08/01 04:46:31;;;;;;;4.55;3.38;;;18.50;96.30;;;19.80;61.43;96302.13;5011594;28;20042;-52
2023/08/01 04:48:59;;;;;;;5.97;3.53;;;18.50;97.00;;;19.85;61.62;96327.31;5012121;28;20046;-54
2023/08/01 04:51:27;;;;;;;3.85;2.42;;;18.50;97.60;;;19.95;61.56;96333.88;5020059;28;20053;-52
2023/08/01 04:53:54;;;;;;;4.35;2.53;;;18.50;98.30;;;19.98;61.59;96342.28;5012685;28;20413;-55
2023/08/01 04:56:22;;;;;;;4.95;2.88;;;18.50;99.30;;;19.99;61.57;96343.94;5012458;28;20072;-52
2023/08/01 04:58:50;;;;;;;4.32;2.53;;;18.50;99.10;;;19.84;61.93;96354.56;5010526;28;20057;-51
2023/08/01 05:01:17;;;;;;;6.60;2.95;;;18.40;99.70;;;19.92;61.63;96366.81;5010549;28;20050;-53
2023/08/01 05:03:45;;;;;;;5.22;3.15;;;18.40;99.90;;;19.84;61.51;96365.34;5012428;28;20041;-52
2023/08/01 05:06:12;;;;;;;3.88;2.42;;;18.40;98.50;;;19.72;61.48;96352.00;5012316;28;20049;-55
2023/08/01 05:08:40;;;;;;;4.95;2.40;;;18.30;98.30;;;19.73;61.85;96333.91;5011859;28;20057;-54
2023/08/01 05:11:08;;;;;;;5.20;2.20;;;18.30;97.80;;;19.77;61.67;96340.41;5004368;28;20041;-52
2023/08/01 05:13:35;;;;;;;6.53;2.92;;;18.30;98.30;;;19.74;61.70;96316.66;5012590;28;20323;-52
2023/08/01 05:16:03;;;;;;;3.53;2.10;;;18.30;98.10;;;19.82;61.42;96310.78;5012139;28;20045;-53
2023/08/01 05:18:31;;;;;;;4.43;2.70;;;18.40;97.40;;;19.80;61.37;96304.81;5011846;28;20046;-52
2023/08/01 05:20:59;;;;;;;3.58;2.45;;;18.40;96.60;;;19.86;61.36;96314.63;4994682;28;20050;-55
2023/08/01 05:23:26;;;;;;;4.00;2.50;;;18.40;96.80;;;19.86;61.17;96307.31;5012106;28;20038;-55
2023/08/01 05:25:54;;;;;;;4.05;2.60;;;18.40;96.40;;;19.90;61.09;96306.81;5011823;28;20053;-53
2023/08/01 05:28:22;;;;;;;4.05;2.08;;;18.50;96.70;;;19.91;61.12;96297.63;5011642;28;20371;-55
2023/08/01 05:30:49;;;;;;;3.03;2.22;;;18.40;96.00;;;19.95;60.93;96299.59;5011905;28;20038;-54
2023/08/01 05:33:17;;;;;;;4.93;2.60;;;18.50;97.00;;;19.98;60.81;96312.59;5012069;28;20073;-55
2023/08/01 05:35:44;;;;;;;3.75;2.13;;;18.40;95.70;;;19.97;60.67;96310.16;5011831;28;20049;-56
2023/08/01 05:38:12;;;;;;;5.15;2.70;;;18.50;95.80;;;20.01;60.53;96305.88;5003726;28;20399;-57
2023/08/01 05:40:39;;;;;;;2.67;2.20;;;18.50;95.50;;;20.04;60.36;96308.84;5011827;28;20052;-55
2023/08/01 05:43:08;;;;;;;5.30;2.92;;;18.50;93.70;;;20.12;60.25;96313.00;5010345;28;20038;-55
2023/08/01 05:45:36;;;;;;;5.82;3.35;;;18.70;93.90;;;20.08;60.31;96319.97;5011763;28;20437;-55
2023/08/01 05:48:03;;;;;;;3.38;2.50;;;18.70;93.10;;;20.14;60.19;96318.97;5026544;28;20402;-56
2023/08/01 05:50:31;;;;;;;5.25;2.95;;;18.70;92.70;;;20.21;60.05;96316.06;5011701;28;20042;-54
2023/08/01 05:52:59;;;;;;;4.53;3.25;;;18.70;92.50;;;20.24;59.94;96323.69;5010397;28;20405;-56
2023/08/01 05:55:26;;;;;;;5.82;2.70;;;18.80;92.70;;;20.31;59.68;96321.56;5011362;28;20061;-53
2023/08/01 05:57:54;;;;;;;4.53;2.45;;;18.80;92.80;;;20.36;59.74;96321.63;5011074;28;20046;-55
2023/08/01 06:00:22;;;;;;;5.13;3.20;;;18.90;93.00;;;20.42;59.73;96326.00;5010585;28;20042;-57
2023/08/01 06:02:49;;;;;;;6.72;3.03;;;18.90;93.00;;;20.45;59.76;96324.66;5010502;28;20045;-56
2023/08/01 06:05:17;;;;;;;4.53;2.78;;;18.90;92.50;;;20.39;59.44;96331.09;5011233;28;20053;-54
2023/08/01 06:07:45;;;;;;;7.10;3.63;;;18.90;92.00;;;20.42;59.69;96331.41;5011261;28;20065;-57
2023/08/01 06:10:13;;;;;;;8.10;3.88;;;18.90;92.40;;;20.45;59.79;96336.31;5011223;28;20052;-53
2023/08/01 06:12:41;;;;;;;4.70;2.97;;;18.90;92.80;;;20.48;59.64;96328.75;5011388;28;20097;-52
2023/08/01 06:15:09;;;;;;;6.38;3.72;;;18.90;92.60;;;20.45;59.66;96343.59;5011033;28;20046;-55
2023/08/01 06:17:36;;;;;;;6.50;3.30;;;18.90;92.10;;;20.32;59.62;96347.53;5010018;28;20042;-54
2023/08/01 06:20:05;;;;;;;6.95;4.38;;;18.90;91.90;;;20.33;60.23;96367.25;5010845;28;20050;-54
2023/08/01 06:22:32;;;;;;;6.53;3.53;;;18.90;93.20;;;20.10;61.47;96349.44;5011373;28;20046;-50
2023/08/01 06:25:00;;;;;;;5.85;3.00;;;18.60;99.10;;;19.85;62.32;96348.06;5011190;28;20042;-53
2023/08/01 06:27:28;;;;;;;5.10;3.03;;;18.10;99.90;;;19.63;62.90;96373.16;5010537;28;20402;-55
2023/08/01 06:29:55;;;;;;;6.07;3.90;;;17.80;99.90;;;19.49;63.74;96393.50;5010845;28;20490;-51
2023/08/01 06:32:23;;;;;;;6.97;3.45;;;17.60;99.90;;;19.25;64.68;96385.59;5009736;28;20054;-54
2023/08/01 06:34:51;;;;;;;7.22;3.35;;;17.50;99.90;;;19.26;64.66;96384.53;5010178;28;20049;-53
2023/08/01 06:37:18;;;;;;;6.18;4.70;;;17.40;99.90;;;19.22;65.18;96378.00;5010819;28;20053;-54
2023/08/01 06:39:46;;;;;;;5.78;4.07;;;17.50;99.90;;;19.14;65.48;96377.59;5010935;28;20064;-55
2023/08/01 06:42:13;;;;;;;5.88;4.30;;;17.50;99.90;;;19.06;65.95;96368.84;5010886;28;20042;-54
2023/08/01 06:44:41;;;;;;;5.88;4.45;;;17.40;99.90;;;19.07;66.05;96364.25;5011176;28;20034;-57
2023/08/01 06:47:09;;;;;;;7.65;4.00;;;17.40;99.90;;;18.97;66.37;96354.13;5010602;28;20050;-55
2023/08/01 06:49:36;;;;;;;6.60;3.20;;;17.30;99.90;;;18.96;66.24;96341.72;5010905;28;20038;-49
2023/08/01 06:52:04;;;;;;;7.43;3.80;;;17.30;99.90;;;18.94;66.38;96335.78;5010967;28;20049;-52
2023/08/01 06:54:32;;;;;;;7.65;4.20;;;17.30;99.90;;;19.00;66.05;96329.38;5010887;28;20038;-54
2023/08/01 06:57:00;;;;;;;7.85;4.78;;;17.30;99.90;;;19.05;66.33;96323.25;5010837;28;20042;-54
2023/08/01 06:59:28;;;;;;;5.63;3.90;;;17.40;99.90;;;19.10;66.18;96326.03;5007375;28;20413;-51
2023/08/01 07:01:55;;;;;;;8.43;4.60;;;17.40;99.90;;;19.16;66.16;96321.53;5008911;28;20409;-51
2023/08/01 07:04:23;;;;;;;6.30;4.15;;;17.50;99.90;;;19.18;66.19;96319.38;5011128;28;20038;-53
2023/08/01 07:06:51;;;;;;;5.85;4.05;;;17.50;99.90;;;19.22;65.94;96317.81;5010990;28;20413;-52
2023/08/01 07:09:19;;;;;;;6.13;4.22;;;17.60;99.90;;;19.22;66.05;96325.91;5013951;28;20037;-53
2023/08/01 07:11:46;;;;;;;6.47;4.78;;;17.60;99.90;;;19.16;66.14;96327.72;5013376;28;20505;-56
2023/08/01 07:14:14;;;;;;;7.25;4.07;;;17.60;99.90;;;19.17;66.22;96329.34;5014512;28;20058;-53
2023/08/01 07:16:41;;;;;;;7.53;4.60;;;17.60;99.90;;;19.11;66.24;96341.13;5013055;28;20383;-52
2023/08/01 07:19:09;;;;;;;6.40;4.60;;;17.50;99.90;;;19.15;66.16;96344.97;5013696;28;20058;-54
2023/08/01 07:21:37;;;;;;;6.43;4.53;;;17.50;99.90;;;19.15;65.92;96336.06;5014603;28;20041;-51
2023/08/01 07:24:05;;;;;;;8.10;5.22;;;17.50;99.90;;;19.11;66.24;96338.44;5014076;28;20409;-51
2023/08/01 07:26:33;;;;;;;11.13;5.05;;;17.50;99.90;;;19.06;66.28;96323.00;5011771;28;20038;-51
2023/08/01 07:29:00;;;;;;;7.07;4.70;;;17.40;99.90;;;18.87;66.88;96330.53;5013118;28;20112;-53
2023/08/01 07:31:28;;;;;;;7.72;4.97;;;17.30;99.90;;;18.77;67.27;96338.44;5013919;28;20042;-52
2023/08/01 07:33:56;;;;;;;8.15;4.50;;;17.20;99.90;;;18.69;67.61;96333.47;5012512;28;20045;-55
2023/08/01 07:36:24;;;;;;;7.40;4.45;;;17.10;99.90;;;18.70;67.45;96322.41;5014013;28;20053;-53
2023/08/01 07:38:52;;;;;;;6.25;3.83;;;17.10;99.90;;;18.58;68.20;96332.47;5013394;28;20046;-51
2023/08/01 07:41:20;;;;;;;7.00;4.43;;;17.10;99.90;;;18.64;67.91;96336.06;5012615;28;20493;-54
2023/08/01 07:43:48;;;;;;;8.32;4.30;;;17.20;99.90;;;18.70;67.83;96330.50;5013885;28;20378;-52
2023/08/01 07:46:16;;;;;;;6.55;3.72;;;17.30;99.90;;;18.73;68.02;96344.53;5013855;28;20521;-50
2023/08/01 07:48:44;;;;;;;6.90;4.65;;;17.30;99.90;;;18.79;67.99;96344.41;5012073;28;20038;-53
2023/08/01 07:51:11;;;;;;;8.45;4.13;;;17.30;99.90;;;18.87;67.97;96346.72;5013755;28;20049;-54
2023/08/01 07:53:39;;;;;;;5.97;4.25;;;17.40;99.90;;;18.86;68.09;96326.22;5013815;28;20049;-52
2023/08/01 07:56:08;;;;;;;5.93;4.05;;;17.40;99.90;;;18.86;68.32;96337.00;5013593;28;20061;-55
2023/08/01 07:58:36;;;;;;;6.35;4.25;;;17.40;99.90;;;18.88;68.29;96337.56;5013108;28;20053;-51
2023/08/01 08:01:05;;;;;;;4.90;3.38;;;17.40;99.90;;;18.88;68.30;96339.44;5013842;28;20544;-53
2023/08/01 08:03:33;;;;;;;5.75;3.70;;;17.50;99.90;;;18.88;68.53;96347.50;5011650;28;20513;-51
2023/08/01 08:06:03;;;;;;;4.13;3.33;;;17.50;99.90;;;18.82;68.65;96341.22;5013373;28;20113;-51
2023/08/01 08:08:33;;;;;;;5.47;3.50;;;17.40;99.90;;;18.90;68.33;96348.09;5011874;28;20405;-54
2023/08/01 08:11:03;;;;;;;5.80;3.38;;;17.40;99.90;;;18.83;68.69;96353.66;5012279;28;20041;-53
2023/08/01 08:13:31;;;;;;;5.60;3.17;;;17.40;99.90;;;18.90;68.53;96340.00;5013606;28;20053;-52
2023/08/01 08:15:59;;;;;;;4.57;3.42;;;17.50;99.90;;;18.95;68.66;96350.06;5013366;28;20053;-53
2023/08/01 08:18:26;;;;;;;3.80;2.85;;;17.50;99.90;;;18.97;68.65;96343.34;5004829;28;20057;-51
2023/08/01 08:20:54;;;;;;;5.00;2.80;;;17.50;99.90;;;18.94;68.63;96338.47;5013057;28;20061;-51
2023/08/01 08:23:22;;;;;;;3.90;3.33;;;17.60;99.90;;;19.04;68.65;96335.91;5013191;28;20042;-49
2023/08/01 08:25:50;;;;;;;4.13;2.83;;;17.60;99.90;;;19.04;68.44;96337.81;5013270;28;20504;-54
2023/08/01 08:28:32;;;;;;;4.00;2.92;;;17.70;99.90;;;19.07;68.57;96334.59;5011446;28;20045;-52
2023/08/01 08:31:02;;;;;;;4.45;3.05;;;17.70;99.90;;;19.12;68.92;96341.97;5011799;28;20038;-50
2023/08/01 08:33:30;;;;;;;4.03;2.80;;;17.70;99.90;;;19.23;68.64;96335.63;5005929;28;20387;-54
2023/08/01 08:35:57;;;;;;;4.13;2.55;;;17.90;99.90;;;19.32;68.59;96342.25;5011929;28;20045;-55
2023/08/01 08:38:25;;;;;;;3.65;2.42;;;18.00;99.90;;;19.40;68.47;96339.09;5012408;28;20041;-53
2023/08/01 08:40:57;;;;;;;3.72;2.20;;;18.10;99.90;;;19.51;68.06;96342.78;5012286;28;20042;-52
2023/08/01 08:43:26;;;;;;;5.18;2.60;;;18.10;99.90;;;19.50;68.25;96337.63;5012580;28;20060;-53
2023/08/01 08:45:59;;;;;;;2.90;2.15;;;18.20;99.90;;;19.61;68.14;96337.50;5012754;28;20038;-55
2023/08/01 08:48:29;;;;;;;3.78;2.30;;;18.30;99.90;;;19.74;68.04;96330.94;5011010;28;20049;-51
2023/08/01 08:51:03;;;;;;;3.35;2.10;;;18.40;99.90;;;19.91;68.10;96327.34;5012631;28;20060;-51
2023/08/01 08:53:32;;;;;;;2.55;2.00;;;18.60;99.90;;;19.92;68.01;96346.00;5005086;28;20073;-54
2023/08/01 08:56:01;;;;;;;5.30;1.95;;;18.70;99.90;;;20.09;67.94;96353.22;5011600;28;20057;-54
2023/08/01 08:58:31;;;;;;;3.90;2.55;;;18.80;99.90;;;20.20;67.54;96353.09;5010776;28;20524;-53
2023/08/01 09:01:01;;;;;;;3.20;1.92;;;18.80;99.90;;;20.27;67.16;96358.28;5011176;28;20042;-52
2023/08/01 09:03:29;;;;;;;3.28;1.90;;;18.80;99.90;;;20.24;66.89;96365.00;5003726;28;20046;-52
2023/08/01 09:06:09;;;;;;;2.95;2.25;;;18.70;99.90;;;20.20;66.92;96357.66;5012329;28;20049;-51
2023/08/01 09:08:39;;;;;;;2.20;1.70;;;18.70;99.90;;;20.21;66.62;96364.69;5003459;28;20042;-53
2023/08/01 09:11:07;;;;;;;1.98;1.63;;;18.60;99.90;;;20.14;66.56;96369.47;5010603;28;20046;-54
2023/08/01 09:13:35;;;;;;;2.25;1.70;;;18.60;99.90;;;20.11;66.67;96381.63;5010803;28;20607;-53
2023/08/01 09:16:06;;;;;;;3.20;1.38;;;18.60;99.90;;;20.01;67.11;96385.00;5010785;28;20050;-52
2023/08/01 09:18:35;;;;;;;1.98;1.40;;;18.50;99.90;;;20.04;67.28;96389.91;5003129;28;20050;-54
2023/08/01 09:21:03;;;;;;;4.40;1.42;;;18.50;99.90;;;19.96;67.37;96389.53;5012279;28;20049;-52
2023/08/01 09:23:30;;;;;;;1.40;1.30;;;18.50;99.90;;;19.97;67.66;96400.09;5010813;28;20052;-52
2023/08/01 09:25:58;;;;;;;2.63;1.85;;;18.40;99.90;;;20.02;67.71;96393.94;5011976;28;20044;-50
2023/08/01 09:28:27;;;;;;;6.50;1.60;;;18.50;99.90;;;20.10;67.63;96388.06;5011543;28;20050;-51
2023/08/01 09:30:57;;;;;;;3.28;1.70;;;18.60;99.90;;;20.15;67.90;96388.16;5011308;28;20497;-50
2023/08/01 09:33:25;;;;;;;1.90;1.65;;;18.70;99.90;;;20.16;68.10;96388.94;5011903;28;20046;-51
2023/08/01 09:35:52;;;;;;;3.40;1.70;;;18.70;99.90;;;20.18;68.16;96389.50;5010702;28;20409;-54
2023/08/01 09:38:21;;;;;;;2.08;1.40;;;18.70;99.90;;;20.24;68.41;96400.13;5010002;28;20049;-51
2023/08/01 09:40:49;;;;;;;2.47;1.55;;;18.70;99.90;;;20.26;68.14;96400.72;5011582;28;20408;-52
2023/08/01 09:43:17;;;;;;;2.40;1.50;;;18.70;99.90;;;20.24;68.26;96408.25;5011320;28;20045;-52
2023/08/01 09:45:52;;;;;;;1.85;1.30;;;18.80;99.90;;;20.13;68.50;96411.09;5011765;28;20042;-50
2023/08/01 09:48:29;;;;;;;1.52;1.08;;;18.70;99.90;;;19.70;68.86;96409.94;5009986;28;20512;-53
2023/08/01 09:51:15;;;;;;;1.48;1.00;;;18.40;99.90;;;19.63;69.33;96412.84;5011947;28;20042;-49
2023/08/01 09:53:54;;;;;;;0.98;0.88;;;18.20;99.90;;;19.58;69.38;96418.16;5004633;28;20486;-50
2023/08/01 09:56:27;;;;;;;1.00;0.80;;;18.20;99.90;;;19.47;69.95;96406.41;5011591;28;20046;-55
2023/08/01 09:58:56;;;;;;;0.85;0.85;;;18.10;99.90;;;19.57;69.69;96417.34;5011285;28;20512;-54
2023/08/01 10:01:24;;;;;;;2.00;0.90;;;18.20;99.90;;;19.39;70.31;96412.25;5007526;28;20048;-49
2023/08/01 10:03:53;;;;;;;0.80;0.80;;;18.20;99.90;;;19.45;70.44;96425.56;5010162;28;20045;-50
2023/08/01 10:06:24;;;;;;;1.20;0.93;;;18.20;99.90;;;19.32;70.98;96423.19;5011131;28;20046;-55
2023/08/01 10:08:52;;;;;;;0.80;0.80;;;18.10;99.90;;;19.32;70.43;96423.19;5010071;28;20430;-54
2023/08/01 10:11:22;;;;;;;1.25;0.88;;;18.10;99.90;;;19.53;69.56;96428.91;5011825;28;20042;-53
2023/08/01 10:13:50;;;;;;;0.98;0.80;;;18.20;99.90;;;19.38;67.78;96424.09;5010203;28;20050;-54
2023/08/01 10:16:18;;;;;;;1.60;0.93;;;18.10;99.90;;;19.43;67.23;96424.97;5011023;28;20057;-51
2023/08/01 10:18:45;;;;;;;1.20;1.10;;;18.10;99.90;;;19.26;66.37;96430.38;5010865;28;20042;-54
2023/08/01 10:21:18;;;;;;;0.90;0.90;;;18.00;99.90;;;19.24;65.63;96426.31;5011209;28;20060;-49
2023/08/01 10:23:46;;;;;;;0.65;0.63;;;17.90;99.90;;;19.18;65.79;96430.00;5010241;28;20042;-53